Time;durP1;ratioP1;P1;durP2;ratioP2;P2;SDS_P1;SDS_P2;PMS_P1;PMS_P2;Temp;Humidity;BMP_temperature;BMP_pressure;BME280_temperature;BME280_humidity;BME280_pressure;Samples;Min_cycle;Max_cycle;Signal;HPM_P1;HPM_P2
2023/01/28 00:01:49;;;;;;;12.27;8.00;;;6.10;47.60;;;;;;5032546;28;20189;-51
2023/01/28 00:04:15;;;;;;;8.40;7.47;;;6.10;47.60;;;;;;5032305;28;20577;-53
2023/01/28 00:06:41;;;;;;;8.50;6.80;;;6.00;47.60;;;;;;5032158;28;20413;-52
2023/01/28 00:09:07;;;;;;;10.38;6.40;;;6.10;47.70;;;;;;5032552;28;20239;-52
2023/01/28 00:11:33;;;;;;;9.60;7.00;;;6.00;47.60;;;;;;5032024;28;20201;-52
2023/01/28 00:13:59;;;;;;;9.35;6.15;;;6.00;47.60;;;;;;5032179;28;20412;-52
2023/01/28 00:16:29;;;;;;;10.00;7.45;;;6.00;47.60;;;;;;5032254;28;20205;-52
2023/01/28 00:18:54;;;;;;;8.07;6.20;;;6.00;47.60;;;;;;5032329;28;20217;-52
2023/01/28 00:21:20;;;;;;;9.40;6.43;;;6.00;47.50;;;;;;5031920;28;20573;-52
2023/01/28 00:23:51;;;;;;;9.40;6.68;;;6.00;48.30;;;;;;5032165;28;20177;-52
2023/01/28 00:26:17;;;;;;;7.43;6.60;;;5.90;47.60;;;;;;5031763;28;20174;-52
2023/01/28 00:28:43;;;;;;;12.07;6.55;;;5.90;47.80;;;;;;5031303;28;20177;-53
2023/01/28 00:31:15;;;;;;;6.22;5.55;;;5.90;47.70;;;;;;5031921;28;20332;-52
2023/01/28 00:33:40;;;;;;;7.65;5.38;;;5.90;47.80;;;;;;5032052;28;20316;-52
2023/01/28 00:36:06;;;;;;;8.10;6.20;;;5.90;47.80;;;;;;5031834;28;20693;-52
2023/01/28 00:38:34;;;;;;;11.13;7.32;;;5.90;47.60;;;;;;5032085;28;20207;-53
2023/01/28 00:41:14;;;;;;;8.77;6.55;;;5.80;47.50;;;;;;5031995;28;20261;-51
2023/01/28 00:43:40;;;;;;;8.07;7.05;;;5.90;47.70;;;;;;5031854;28;20180;-51
2023/01/28 00:46:08;;;;;;;8.13;5.82;;;5.80;47.60;;;;;;5031755;28;20198;-52
2023/01/28 00:48:34;;;;;;;10.02;6.90;;;5.80;47.60;;;;;;5031792;28;20804;-52
2023/01/28 00:51:00;;;;;;;11.65;7.50;;;5.80;47.50;;;;;;5031696;28;20686;-51
2023/01/28 00:53:25;;;;;;;10.47;7.50;;;5.80;48.00;;;;;;5031743;28;20178;-52
2023/01/28 00:55:51;;;;;;;8.30;6.67;;;5.80;47.30;;;;;;5031787;28;20500;-52
2023/01/28 00:58:18;;;;;;;9.65;7.45;;;5.80;47.40;;;;;;5031890;28;20197;-52
2023/01/28 01:00:44;;;;;;;8.40;6.82;;;5.80;47.30;;;;;;5031710;28;20177;-52
2023/01/28 01:03:09;;;;;;;9.80;6.30;;;5.80;47.40;;;;;;5031730;28;20197;-52
2023/01/28 01:05:35;;;;;;;7.00;6.10;;;5.70;47.60;;;;;;5031488;28;20912;-52
2023/01/28 01:08:01;;;;;;;8.80;6.77;;;5.80;47.50;;;;;;5031622;28;20412;-52
2023/01/28 01:10:27;;;;;;;9.93;7.60;;;5.80;47.30;;;;;;5031596;28;20180;-52
2023/01/28 01:12:53;;;;;;;9.23;7.20;;;5.80;47.30;;;;;;5031585;28;20436;-52
2023/01/28 01:15:19;;;;;;;9.60;7.50;;;5.80;47.30;;;;;;5031632;28;20417;-52
2023/01/28 01:17:47;;;;;;;9.43;7.05;;;5.80;47.30;;;;;;5031667;28;20461;-52
2023/01/28 01:20:19;;;;;;;11.60;7.70;;;5.80;47.20;;;;;;5031726;28;20230;-52
2023/01/28 01:22:45;;;;;;;11.20;7.97;;;5.80;47.30;;;;;;5031352;28;20236;-52
2023/01/28 01:25:15;;;;;;;11.13;7.72;;;5.80;47.30;;;;;;5031565;28;20185;-52
2023/01/28 01:27:42;;;;;;;15.98;9.20;;;5.80;47.20;;;;;;5031496;28;20195;-52
2023/01/28 01:30:09;;;;;;;13.85;8.48;;;5.80;47.30;;;;;;5031445;28;20213;-52
2023/01/28 01:32:35;;;;;;;16.10;8.70;;;5.80;47.30;;;;;;5031326;28;20669;-52
2023/01/28 01:35:04;;;;;;;10.82;7.60;;;5.80;47.30;;;;;;5031123;28;20177;-52
2023/01/28 01:37:30;;;;;;;12.38;9.02;;;5.80;47.40;;;;;;5031614;28;20173;-52
2023/01/28 01:39:56;;;;;;;14.65;10.05;;;5.90;47.50;;;;;;5033241;28;20735;-53
2023/01/28 01:42:24;;;;;;;12.37;8.67;;;5.80;47.40;;;;;;5034889;28;20205;-52
2023/01/28 01:44:53;;;;;;;13.43;8.80;;;5.90;47.20;;;;;;5034660;28;20646;-52
2023/01/28 01:47:21;;;;;;;14.25;8.75;;;5.90;47.10;;;;;;5034830;28;20720;-51
2023/01/28 01:49:47;;;;;;;13.32;8.35;;;5.90;47.00;;;;;;5034745;28;20666;-52
2023/01/28 01:52:17;;;;;;;10.53;8.40;;;5.80;47.00;;;;;;5034658;28;20297;-51
2023/01/28 01:54:47;;;;;;;10.90;8.73;;;5.80;47.00;;;;;;5034417;28;20920;-52
2023/01/28 01:57:19;;;;;;;12.63;8.30;;;5.80;46.90;;;;;;5034630;28;20178;-52
2023/01/28 01:59:45;;;;;;;11.07;6.93;;;5.80;47.00;;;;;;5034589;28;20208;-52
2023/01/28 02:02:11;;;;;;;11.43;7.20;;;5.80;47.00;;;;;;5034424;28;20190;-52
2023/01/28 02:04:43;;;;;;;10.32;7.95;;;5.80;47.00;;;;;;5034328;28;20408;-52
2023/01/28 02:07:12;;;;;;;15.23;8.88;;;5.80;46.90;;;;;;5034539;28;20188;-52
2023/01/28 02:09:40;;;;;;;15.48;8.18;;;5.80;47.00;;;;;;5034705;28;20174;-51
2023/01/28 02:12:45;;;;;;;9.90;7.20;;;5.80;46.90;;;;;;5034330;28;20197;-52
2023/01/28 02:15:17;;;;;;;11.07;7.60;;;5.80;47.00;;;;;;5025072;28;20206;-52
2023/01/28 02:17:44;;;;;;;9.10;7.70;;;5.80;46.90;;;;;;5034242;28;20647;-51
2023/01/28 02:20:13;;;;;;;9.32;8.05;;;5.80;46.70;;;;;;5034168;28;20224;-52
2023/01/28 02:22:38;;;;;;;14.35;8.55;;;5.80;46.70;;;;;;5033990;28;20300;-53
2023/01/28 02:25:13;;;;;;;10.47;7.63;;;5.80;46.70;;;;;;5033820;28;20194;-52
2023/01/28 02:27:54;;;;;;;10.80;7.55;;;5.80;46.90;;;;;;5034435;28;20169;-52
2023/01/28 02:30:41;;;;;;;13.10;8.48;;;5.80;46.80;;;;;;5034186;28;20539;-52
2023/01/28 02:33:27;;;;;;;8.02;6.50;;;5.80;46.80;;;;;;5034258;28;20194;-52
2023/01/28 02:35:54;;;;;;;12.98;7.95;;;5.80;47.00;;;;;;5034077;28;20162;-52
2023/01/28 02:38:29;;;;;;;12.52;7.68;;;5.80;47.00;;;;;;5034062;28;20634;-51
2023/01/28 02:41:04;;;;;;;11.30;7.95;;;5.80;47.10;;;;;;5033754;28;20609;-52
2023/01/28 02:43:32;;;;;;;9.60;8.05;;;5.90;47.10;;;;;;5033821;28;20170;-52
2023/01/28 02:48:45;;;;;;;14.02;7.60;;;5.90;47.10;;;;;;5034039;28;20204;-52
2023/01/28 02:51:23;;;;;;;13.07;7.30;;;5.90;47.10;;;;;;5032665;28;20252;-53
2023/01/28 02:54:07;;;;;;;9.60;7.40;;;5.90;47.10;;;;;;5033651;28;20543;-52
2023/01/28 02:56:43;;;;;;;12.43;8.25;;;5.80;46.90;;;;;;5033667;28;20178;-52
2023/01/28 02:59:35;;;;;;;10.15;6.95;;;5.80;46.90;;;;;;5033594;28;20205;-52
2023/01/28 03:02:26;;;;;;;9.55;6.90;;;5.80;46.90;;;;;;5033685;28;20193;-53
2023/01/28 03:04:56;;;;;;;9.45;7.07;;;5.70;46.90;;;;;;5033175;28;20162;-52
2023/01/28 03:07:25;;;;;;;12.48;7.82;;;5.70;47.00;;;;;;5033368;28;20652;-52
2023/01/28 03:09:52;;;;;;;10.18;7.55;;;5.60;46.90;;;;;;5033527;28;20543;-53
2023/01/28 03:38:21;;;;;;;11.93;8.57;;;5.60;46.90;;;;;;5032972;28;20236;-52
2023/01/28 03:41:01;;;;;;;7.97;6.93;;;5.60;47.00;;;;;;5033027;28;20161;-52
2023/01/28 03:43:28;;;;;;;11.95;7.20;;;5.60;47.00;;;;;;5032953;28;20525;-52
2023/01/28 03:45:54;;;;;;;9.80;7.60;;;5.60;47.40;;;;;;5032440;28;20174;-52
2023/01/28 03:48:23;;;;;;;12.93;7.75;;;5.50;46.70;;;;;;5032520;28;20180;-53
2023/01/28 03:50:49;;;;;;;13.35;8.85;;;5.50;46.60;;;;;;5032608;28;20174;-52
2023/01/28 03:53:16;;;;;;;19.15;9.15;;;5.50;46.80;;;;;;5032477;28;20234;-51
2023/01/28 03:55:43;;;;;;;10.65;8.90;;;5.50;46.90;;;;;;5032288;28;20714;-52
2023/01/28 03:58:10;;;;;;;13.35;10.05;;;5.50;46.80;;;;;;5032315;28;20708;-52
2023/01/28 04:00:42;;;;;;;11.68;8.88;;;5.50;46.70;;;;;;5032445;28;20239;-52
2023/01/28 04:03:18;;;;;;;9.45;7.82;;;5.50;46.60;;;;;;5032359;28;20190;-52
2023/01/28 04:05:58;;;;;;;14.10;8.32;;;5.40;46.50;;;;;;5032151;28;20166;-52
2023/01/28 04:08:24;;;;;;;7.28;6.15;;;5.50;46.30;;;;;;5032413;28;20243;-52
2023/01/28 04:10:50;;;;;;;10.00;7.37;;;5.40;46.40;;;;;;5032209;28;20209;-52
2023/01/28 04:13:17;;;;;;;15.05;8.52;;;5.40;46.30;;;;;;5032097;28;20416;-52
2023/01/28 04:15:44;;;;;;;9.73;7.50;;;5.30;46.20;;;;;;5031974;28;20224;-52
2023/01/28 04:18:10;;;;;;;11.48;6.80;;;5.30;46.70;;;;;;5032335;28;20181;-52
2023/01/28 04:20:36;;;;;;;7.35;6.65;;;5.30;46.10;;;;;;5032239;28;20178;-52
2023/01/28 04:23:03;;;;;;;8.93;8.05;;;5.20;45.60;;;;;;5031872;28;20264;-51
2023/01/28 04:25:29;;;;;;;8.05;6.20;;;5.20;46.00;;;;;;5032138;28;20200;-52
2023/01/28 04:27:55;;;;;;;7.22;6.53;;;5.20;45.90;;;;;;5032267;28;20178;-52
2023/01/28 04:30:21;;;;;;;7.70;6.13;;;5.10;45.70;;;;;;5032020;28;20232;-52
2023/01/28 04:32:49;;;;;;;11.75;6.82;;;5.10;45.50;;;;;;5031949;28;20929;-52
2023/01/28 04:35:15;;;;;;;18.25;7.95;;;5.00;45.40;;;;;;5031703;28;20601;-52
2023/01/28 04:37:41;;;;;;;7.72;6.22;;;5.00;45.40;;;;;;5032245;28;20201;-52
2023/01/28 04:40:08;;;;;;;6.95;5.80;;;5.00;45.30;;;;;;5031803;28;20201;-52
2023/01/28 04:42:34;;;;;;;7.97;6.55;;;4.90;45.30;;;;;;5031796;28;20332;-51
2023/01/28 04:45:00;;;;;;;10.43;5.50;;;4.90;45.20;;;;;;5031937;28;20269;-52
2023/01/28 04:47:25;;;;;;;8.27;5.97;;;4.90;45.10;;;;;;5032060;28;20170;-52
2023/01/28 04:49:51;;;;;;;7.00;6.30;;;4.80;44.70;;;;;;5031809;28;20765;-53
2023/01/28 04:52:17;;;;;;;7.40;5.83;;;4.80;44.70;;;;;;5031776;28;20193;-53
2023/01/28 04:54:42;;;;;;;9.00;5.77;;;4.70;44.70;;;;;;5031641;28;20174;-53
2023/01/28 04:57:08;;;;;;;7.90;4.70;;;4.70;44.70;;;;;;5031646;28;20914;-53
2023/01/28 04:59:34;;;;;;;5.53;4.27;;;4.70;44.40;;;;;;5031924;28;20227;-52
2023/01/28 05:02:00;;;;;;;9.03;4.60;;;4.70;44.60;;;;;;5031684;28;20277;-53
2023/01/28 05:04:25;;;;;;;7.13;5.20;;;4.70;45.70;;;;;;5031486;28;20166;-53
2023/01/28 05:06:51;;;;;;;6.37;5.77;;;4.70;44.80;;;;;;5031785;28;20209;-53
2023/01/28 05:09:17;;;;;;;6.57;4.47;;;4.70;45.00;;;;;;5031644;28;20212;-53
2023/01/28 05:11:43;;;;;;;4.90;4.20;;;4.70;44.90;;;;;;5031547;28;20201;-53
2023/01/28 05:14:08;;;;;;;7.30;5.50;;;4.70;44.90;;;;;;5032764;28;20183;-53
2023/01/28 05:16:34;;;;;;;8.73;4.83;;;4.70;44.60;;;;;;5035297;28;20178;-53
2023/01/28 05:19:01;;;;;;;5.37;4.50;;;4.70;43.90;;;;;;5035376;28;20458;-53
2023/01/28 05:21:27;;;;;;;7.47;4.70;;;4.70;43.40;;;;;;5035129;28;20467;-53
2023/01/28 05:23:53;;;;;;;4.93;4.43;;;4.60;43.40;;;;;;5035321;28;20277;-52
2023/01/28 05:26:18;;;;;;;5.40;4.80;;;4.50;43.50;;;;;;5035028;28;20268;-53
2023/01/28 05:28:44;;;;;;;5.20;4.50;;;4.50;43.40;;;;;;5035185;28;20411;-53
2023/01/28 05:31:10;;;;;;;8.20;4.13;;;4.50;43.50;;;;;;5035364;28;20515;-52
2023/01/28 05:33:36;;;;;;;5.05;4.53;;;4.50;43.40;;;;;;5035068;28;20687;-52
2023/01/28 05:36:03;;;;;;;5.10;3.87;;;4.50;43.50;;;;;;5035162;28;20186;-52
2023/01/28 05:38:28;;;;;;;4.75;4.03;;;4.50;43.60;;;;;;5034890;28;20467;-53
2023/01/28 05:40:54;;;;;;;5.20;4.67;;;4.40;43.60;;;;;;5034856;28;20638;-53
2023/01/28 05:43:20;;;;;;;9.73;4.65;;;4.40;43.50;;;;;;5035162;28;20568;-52
2023/01/28 05:45:46;;;;;;;7.10;5.23;;;4.40;43.40;;;;;;5034672;28;20178;-53
2023/01/28 05:48:12;;;;;;;6.28;5.00;;;4.40;43.30;;;;;;5034771;28;20261;-53
2023/01/28 05:50:38;;;;;;;7.95;5.60;;;4.40;43.50;;;;;;5034918;28;20205;-52
2023/01/28 05:53:05;;;;;;;5.80;4.30;;;4.40;43.70;;;;;;5034940;28;20248;-52
2023/01/28 05:55:31;;;;;;;6.78;4.50;;;4.40;43.50;;;;;;5033240;28;20405;-52
2023/01/28 05:57:57;;;;;;;5.57;4.90;;;4.40;43.10;;;;;;5034949;28;20549;-53
2023/01/28 06:00:23;;;;;;;6.27;4.80;;;4.40;43.50;;;;;;5034746;28;20458;-52
2023/01/28 06:02:51;;;;;;;6.43;5.83;;;4.40;43.60;;;;;;5034570;28;20682;-52
2023/01/28 06:05:17;;;;;;;6.15;5.55;;;4.40;43.50;;;;;;5034278;28;20765;-52
2023/01/28 06:07:46;;;;;;;9.13;6.40;;;4.50;43.60;;;;;;5034474;28;20668;-52
2023/01/28 06:10:13;;;;;;;6.90;4.88;;;4.50;43.30;;;;;;5034642;28;20193;-52
2023/01/28 06:12:39;;;;;;;8.23;5.45;;;4.50;43.40;;;;;;5034263;28;20289;-52
2023/01/28 06:15:05;;;;;;;8.03;5.80;;;4.50;43.50;;;;;;5034194;28;20170;-53
2023/01/28 06:17:31;;;;;;;8.27;5.30;;;4.50;43.70;;;;;;5034419;28;20495;-54
2023/01/28 06:19:56;;;;;;;6.73;5.30;;;4.50;43.70;;;;;;5034459;28;20288;-54
2023/01/28 06:22:22;;;;;;;9.43;5.33;;;4.50;43.50;;;;;;5034156;28;20670;-54
2023/01/28 06:24:48;;;;;;;6.97;6.27;;;4.50;42.80;;;;;;5033805;28;20201;-54
2023/01/28 06:27:14;;;;;;;8.80;6.83;;;4.50;43.00;;;;;;5034057;28;20401;-50
2023/01/28 06:29:39;;;;;;;8.70;6.80;;;4.50;43.10;;;;;;5034318;28;20181;-52
2023/01/28 06:32:05;;;;;;;7.33;5.57;;;4.50;42.90;;;;;;5034201;28;20288;-51
2023/01/28 06:34:31;;;;;;;5.20;4.43;;;4.40;42.70;;;;;;5034057;28;20180;-52
2023/01/28 06:36:57;;;;;;;8.68;6.07;;;4.40;41.90;;;;;;5034140;28;20766;-52
2023/01/28 06:39:23;;;;;;;7.17;4.80;;;4.30;41.90;;;;;;5033983;28;20216;-51
2023/01/28 06:41:49;;;;;;;11.23;5.60;;;4.30;42.20;;;;;;5034098;28;20661;-52
2023/01/28 06:44:15;;;;;;;6.18;4.63;;;4.30;42.60;;;;;;5033723;28;20654;-51
2023/01/28 06:46:41;;;;;;;8.18;4.22;;;4.20;42.60;;;;;;5033663;28;20308;-52
2023/01/28 06:49:07;;;;;;;8.13;5.37;;;4.20;42.40;;;;;;5033961;28;20212;-52
2023/01/28 06:51:32;;;;;;;4.80;3.67;;;4.20;42.30;;;;;;5033569;28;20431;-51
2023/01/28 06:53:58;;;;;;;5.27;4.40;;;4.30;42.20;;;;;;5033818;28;20951;-51
2023/01/28 06:56:24;;;;;;;4.90;4.50;;;4.20;41.40;;;;;;5033552;28;20413;-52
2023/01/28 06:58:50;;;;;;;7.97;4.60;;;4.20;41.90;;;;;;5033555;28;20539;-52
2023/01/28 07:01:16;;;;;;;6.40;4.32;;;4.20;42.10;;;;;;5033511;28;20224;-52
2023/01/28 07:03:42;;;;;;;6.60;5.17;;;4.20;41.80;;;;;;5033416;28;20625;-52
2023/01/28 07:06:08;;;;;;;5.50;3.87;;;4.20;41.80;;;;;;5033070;28;20408;-52
2023/01/28 07:08:33;;;;;;;5.13;4.63;;;4.10;42.00;;;;;;5033546;28;20268;-52
2023/01/28 07:10:59;;;;;;;6.47;4.93;;;4.20;42.00;;;;;;5033171;28;20181;-52
2023/01/28 07:13:25;;;;;;;5.93;5.32;;;4.20;42.10;;;;;;5033197;28;20408;-51
2023/01/28 07:15:51;;;;;;;5.65;5.00;;;4.20;41.90;;;;;;5033249;28;20189;-52
2023/01/28 07:18:17;;;;;;;6.65;5.43;;;4.20;42.00;;;;;;5033031;28;20174;-52
2023/01/28 07:20:43;;;;;;;7.47;4.57;;;4.20;42.10;;;;;;5032872;28;20264;-51
2023/01/28 07:23:09;;;;;;;6.50;5.70;;;4.30;42.20;;;;;;5032966;28;20271;-52
2023/01/28 07:25:34;;;;;;;8.40;4.80;;;4.30;42.10;;;;;;5032841;28;20170;-52
2023/01/28 07:28:00;;;;;;;7.43;4.90;;;4.30;41.70;;;;;;5033301;28;20404;-51
2023/01/28 07:30:26;;;;;;;6.50;4.00;;;4.30;40.80;;;;;;5033103;28;20418;-51
2023/01/28 07:32:53;;;;;;;4.67;3.83;;;4.20;40.50;;;;;;5032829;28;20206;-51
2023/01/28 07:35:19;;;;;;;4.53;4.05;;;4.20;40.80;;;;;;5032489;28;20174;-50
2023/01/28 07:37:56;;;;;;;3.80;3.13;;;4.20;40.60;;;;;;5032584;28;20184;-51
2023/01/28 07:40:23;;;;;;;8.63;4.28;;;4.20;40.90;;;;;;5032947;28;20287;-51
2023/01/28 07:42:48;;;;;;;4.90;3.80;;;4.20;40.80;;;;;;5032953;28;20201;-51
2023/01/28 07:45:15;;;;;;;6.73;3.83;;;4.20;40.90;;;;;;5032496;28;20535;-51
2023/01/28 07:47:41;;;;;;;4.05;3.65;;;4.30;40.70;;;;;;5032651;28;20174;-51
2023/01/28 07:50:08;;;;;;;5.57;3.88;;;4.30;40.80;;;;;;5032829;28;20195;-50
2023/01/28 07:52:42;;;;;;;4.80;3.53;;;4.30;40.40;;;;;;5032400;28;20670;-50
2023/01/28 07:55:10;;;;;;;4.65;3.35;;;4.30;40.70;;;;;;5032399;28;20556;-52
2023/01/28 07:57:35;;;;;;;6.20;3.75;;;4.30;40.70;;;;;;5032502;28;20713;-50
2023/01/28 08:00:01;;;;;;;5.33;4.43;;;4.40;40.80;;;;;;5032513;28;20209;-51
2023/01/28 08:02:28;;;;;;;4.93;3.97;;;4.40;40.60;;;;;;5032306;28;20549;-51
2023/01/28 08:04:53;;;;;;;4.50;3.17;;;4.40;40.70;;;;;;5032422;28;20181;-51
2023/01/28 08:07:19;;;;;;;6.50;4.00;;;4.40;40.30;;;;;;5032243;28;20173;-51
2023/01/28 08:09:45;;;;;;;5.70;4.63;;;4.40;40.20;;;;;;5032426;28;20269;-51
2023/01/28 08:12:10;;;;;;;4.20;3.63;;;4.40;40.50;;;;;;5032092;28;20603;-51
2023/01/28 08:14:36;;;;;;;5.90;4.60;;;4.40;40.30;;;;;;5031941;28;20174;-50
2023/01/28 08:17:02;;;;;;;3.67;3.37;;;4.40;40.00;;;;;;5032266;28;20181;-49
2023/01/28 08:19:28;;;;;;;4.13;3.30;;;4.40;40.10;;;;;;5032110;28;20197;-50
2023/01/28 08:21:53;;;;;;;7.87;3.80;;;4.40;40.20;;;;;;5031915;28;20219;-51
2023/01/28 08:24:19;;;;;;;8.00;3.30;;;4.40;40.50;;;;;;5031942;28;20311;-51
2023/01/28 08:26:47;;;;;;;7.47;3.70;;;4.50;40.40;;;;;;5031995;28;20181;-51
2023/01/28 08:29:13;;;;;;;7.40;4.03;;;4.50;40.20;;;;;;5032000;28;20235;-50
2023/01/28 08:31:38;;;;;;;5.73;4.10;;;4.50;40.20;;;;;;5031898;28;20280;-51
2023/01/28 08:34:04;;;;;;;7.40;4.17;;;4.50;40.30;;;;;;5031890;28;20185;-50
2023/01/28 08:36:30;;;;;;;4.30;3.17;;;4.50;40.20;;;;;;5031777;28;20187;-51
2023/01/28 08:38:55;;;;;;;5.70;3.80;;;4.50;39.40;;;;;;5031963;28;20205;-51
2023/01/28 08:41:22;;;;;;;4.03;3.50;;;4.50;39.90;;;;;;5031973;28;20194;-51
2023/01/28 08:43:48;;;;;;;9.80;3.78;;;4.50;40.20;;;;;;5031972;28;20170;-51
2023/01/28 08:46:14;;;;;;;6.57;5.00;;;4.60;39.70;;;;;;5031575;28;20188;-51
2023/01/28 08:48:39;;;;;;;6.18;3.95;;;4.60;39.20;;;;;;5032228;28;20174;-51
2023/01/28 08:51:05;;;;;;;5.70;4.30;;;4.50;39.80;;;;;;5035828;28;20185;-52
2023/01/28 08:53:31;;;;;;;7.20;4.10;;;4.60;40.10;;;;;;5035992;28;20201;-49
2023/01/28 08:55:57;;;;;;;3.97;3.40;;;4.60;39.40;;;;;;5035739;28;20173;-50
2023/01/28 08:58:23;;;;;;;5.93;3.20;;;4.60;39.20;;;;;;5035999;28;20234;-50
2023/01/28 09:00:49;;;;;;;5.40;4.13;;;4.50;39.00;;;;;;5035559;28;20202;-49
2023/01/28 09:03:15;;;;;;;6.32;4.90;;;4.50;39.30;;;;;;5035806;28;20479;-50
2023/01/28 09:05:40;;;;;;;5.00;4.40;;;4.50;39.40;;;;;;5035588;28;20592;-50
2023/01/28 09:08:10;;;;;;;7.90;4.97;;;4.50;39.60;;;;;;5035890;28;21104;-50
2023/01/28 09:10:37;;;;;;;4.68;3.58;;;4.50;39.30;;;;;;5035600;28;20241;-50
2023/01/28 09:13:07;;;;;;;6.40;5.80;;;4.60;39.30;;;;;;5035370;28;20244;-50
2023/01/28 09:15:33;;;;;;;6.00;2.90;;;4.60;39.20;;;;;;5035151;28;20170;-49
2023/01/28 09:17:59;;;;;;;5.95;3.97;;;4.60;39.00;;;;;;5035355;28;20780;-50
2023/01/28 09:20:26;;;;;;;5.95;4.07;;;4.60;39.10;;;;;;5035475;28;20210;-50
2023/01/28 09:22:52;;;;;;;5.95;4.47;;;4.60;39.30;;;;;;5035098;28;20209;-50
2023/01/28 09:25:17;;;;;;;9.97;3.30;;;4.60;39.10;;;;;;5035053;28;20265;-49
2023/01/28 09:27:43;;;;;;;8.00;4.23;;;4.60;39.10;;;;;;5035317;28;20181;-49
2023/01/28 09:30:09;;;;;;;7.27;3.77;;;4.70;39.10;;;;;;5035582;28;20583;-49
2023/01/28 09:32:35;;;;;;;5.10;4.00;;;4.70;38.70;;;;;;5034993;28;20201;-50
2023/01/28 09:35:02;;;;;;;4.13;2.35;;;4.70;38.20;;;;;;5034801;28;20261;-50
2023/01/28 09:37:28;;;;;;;6.82;3.92;;;4.60;38.40;;;;;;5035280;28;20173;-49
2023/01/28 09:39:53;;;;;;;4.60;3.53;;;4.60;38.80;;;;;;5034762;28;20546;-49
2023/01/28 09:42:34;;;;;;;8.27;3.13;;;4.70;38.50;;;;;;5035088;28;20280;-50
2023/01/28 09:45:13;;;;;;;9.15;3.65;;;4.60;38.00;;;;;;5034656;28;20615;-51
2023/01/28 09:47:52;;;;;;;5.40;2.85;;;4.70;38.10;;;;;;5035141;28;20181;-50
2023/01/28 09:50:37;;;;;;;3.92;2.50;;;4.60;37.40;;;;;;5034858;28;20224;-50
2023/01/28 09:53:27;;;;;;;5.00;3.28;;;4.60;37.90;;;;;;5034632;28;20205;-50
2023/01/28 09:56:15;;;;;;;4.50;2.60;;;4.60;38.20;;;;;;5034653;28;20216;-51
2023/01/28 09:58:42;;;;;;;4.40;3.10;;;4.70;37.80;;;;;;5034806;28;20198;-50
2023/01/28 10:01:34;;;;;;;14.93;11.52;;;4.60;37.80;;;;;;5034232;28;20174;-50
2023/01/28 10:04:05;;;;;;;4.30;3.60;;;4.70;38.20;;;;;;5034734;28;20181;-50
2023/01/28 10:06:49;;;;;;;5.63;3.58;;;4.70;38.50;;;;;;5034373;28;20184;-50
2023/01/28 10:09:24;;;;;;;4.97;3.97;;;4.70;38.20;;;;;;5034396;28;20570;-50
2023/01/28 10:12:15;;;;;;;4.15;2.67;;;4.80;38.20;;;;;;5034120;28;20755;-50
2023/01/28 10:15:01;;;;;;;4.45;2.50;;;4.80;37.80;;;;;;5034164;28;20172;-50
2023/01/28 10:17:44;;;;;;;4.88;3.10;;;4.80;38.20;;;;;;5034354;28;20252;-52
2023/01/28 10:20:14;;;;;;;3.33;2.85;;;4.80;37.80;;;;;;5034000;28;20206;-51
2023/01/28 10:23:02;;;;;;;4.07;2.55;;;4.80;37.30;;;;;;5034037;28;20339;-52
2023/01/28 10:25:30;;;;;;;4.25;3.20;;;4.80;37.50;;;;;;5034119;28;20201;-52
2023/01/28 10:27:56;;;;;;;5.10;2.33;;;4.80;37.60;;;;;;5034034;28;20281;-51
2023/01/28 10:30:25;;;;;;;4.72;3.50;;;4.70;37.70;;;;;;5034288;28;20182;-51
2023/01/28 10:32:55;;;;;;;8.93;6.32;;;4.80;37.50;;;;;;5033910;28;20236;-51
2023/01/28 10:35:21;;;;;;;3.75;3.35;;;4.80;37.70;;;;;;5033816;28;20182;-51
2023/01/28 10:37:47;;;;;;;3.20;2.63;;;4.80;38.00;;;;;;5034224;28;20181;-51
2023/01/28 10:40:15;;;;;;;5.22;3.17;;;4.80;37.90;;;;;;5033735;28;20209;-52
2023/01/28 10:42:41;;;;;;;10.85;5.47;;;4.80;37.80;;;;;;5033768;28;20289;-51
2023/01/28 10:45:19;;;;;;;6.05;3.90;;;4.80;37.90;;;;;;5033487;28;20784;-51
2023/01/28 10:48:08;;;;;;;3.90;2.67;;;4.80;37.90;;;;;;5033783;28;20617;-50
2023/01/28 10:50:34;;;;;;;3.53;2.75;;;4.80;37.70;;;;;;5026273;28;20229;-51
2023/01/28 10:53:02;;;;;;;3.40;3.03;;;4.80;37.40;;;;;;5033522;28;20233;-51
2023/01/28 10:55:51;;;;;;;4.38;2.60;;;4.80;37.20;;;;;;5033328;28;20401;-51
2023/01/28 10:58:20;;;;;;;4.47;3.05;;;4.80;37.00;;;;;;5033669;28;20181;-51
2023/01/28 11:00:51;;;;;;;5.25;3.00;;;4.70;37.20;;;;;;5033438;28;20176;-51
2023/01/28 11:03:20;;;;;;;4.75;3.90;;;4.70;37.10;;;;;;5033452;28;20216;-51
2023/01/28 11:05:53;;;;;;;3.97;3.42;;;4.70;37.10;;;;;;5033392;28;20174;-50
2023/01/28 11:08:20;;;;;;;3.20;2.25;;;4.70;37.40;;;;;;5033315;28;20170;-50
2023/01/28 11:10:47;;;;;;;4.97;4.45;;;4.70;37.60;;;;;;5033508;28;20194;-52
2023/01/28 11:13:21;;;;;;;5.25;2.75;;;4.70;37.60;;;;;;5032343;28;20674;-50
2023/01/28 11:15:50;;;;;;;5.20;3.15;;;4.70;37.60;;;;;;5033019;28;20204;-52
2023/01/28 11:18:27;;;;;;;3.60;2.83;;;4.70;37.80;;;;;;5032982;28;20184;-51
2023/01/28 11:20:59;;;;;;;3.85;2.45;;;4.70;37.70;;;;;;5032928;28;20173;-51
2023/01/28 11:23:33;;;;;;;4.05;2.53;;;4.80;37.50;;;;;;5033324;28;20180;-51
2023/01/28 11:26:16;;;;;;;4.40;2.90;;;4.70;37.50;;;;;;5032838;28;20154;-51
2023/01/28 11:28:43;;;;;;;2.70;2.50;;;4.80;37.50;;;;;;5032943;28;20162;-51
2023/01/28 11:31:13;;;;;;;5.03;3.15;;;4.80;37.30;;;;;;5033036;28;20182;-51
2023/01/28 11:34:09;;;;;;;10.50;5.78;;;4.70;37.30;;;;;;5033072;28;20260;-52
2023/01/28 11:36:35;;;;;;;5.20;3.13;;;4.70;37.50;;;;;;5030420;28;20184;-51
2023/01/28 11:39:26;;;;;;;3.70;3.20;;;4.70;37.10;;;;;;5032923;28;20234;-52
2023/01/28 11:41:52;;;;;;;3.20;2.78;;;4.70;37.40;;;;;;5032817;28;20190;-51
2023/01/28 11:44:24;;;;;;;3.65;2.35;;;4.70;37.40;;;;;;5032367;28;20269;-52
2023/01/28 11:47:09;;;;;;;2.92;2.63;;;4.70;37.50;;;;;;5032488;28;20635;-50
2023/01/28 11:49:55;;;;;;;2.85;2.35;;;4.70;37.50;;;;;;5032536;28;20178;-52
2023/01/28 11:52:35;;;;;;;3.90;3.20;;;4.70;37.40;;;;;;5011217;28;20566;-51
2023/01/28 11:55:22;;;;;;;2.90;2.55;;;4.80;37.30;;;;;;5032294;28;20181;-51
2023/01/28 11:57:59;;;;;;;5.60;2.88;;;4.80;37.60;;;;;;5032382;28;20174;-51
2023/01/28 12:00:52;;;;;;;7.63;2.63;;;4.80;37.60;;;;;;5032545;28;20216;-52
2023/01/28 12:03:54;;;;;;;4.25;2.65;;;4.80;37.30;;;;;;5032674;28;20253;-51
2023/01/28 12:07:06;;;;;;;5.57;3.25;;;4.70;37.40;;;;;;5032381;28;20212;-52
2023/01/28 12:09:52;;;;;;;3.85;2.70;;;4.70;37.50;;;;;;5023246;28;20182;-51
2023/01/28 12:12:46;;;;;;;3.03;2.65;;;4.80;37.60;;;;;;5032219;28;20550;-51
2023/01/28 12:15:46;;;;;;;5.32;3.35;;;4.70;37.40;;;;;;5032063;28;20650;-51
2023/01/28 12:18:55;;;;;;;5.43;2.83;;;4.70;37.10;;;;;;5032507;28;20166;-51
2023/01/28 12:21:34;;;;;;;5.65;3.33;;;4.70;37.40;;;;;;5021122;28;20213;-52
2023/01/28 12:24:17;;;;;;;7.90;2.78;;;4.70;37.20;;;;;;5031738;28;20212;-52
2023/01/28 12:27:07;;;;;;;6.57;5.10;;;4.70;37.00;;;;;;5032275;28;20183;-51
2023/01/28 12:29:38;;;;;;;9.35;2.83;;;4.60;36.90;;;;;;5032240;28;20162;-51
2023/01/28 12:32:30;;;;;;;9.52;3.50;;;4.60;36.70;;;;;;5032244;28;20292;-51
2023/01/28 12:35:20;;;;;;;4.55;2.67;;;4.60;36.80;;;;;;5031860;28;20665;-52
2023/01/28 12:37:59;;;;;;;4.45;3.28;;;4.60;37.00;;;;;;5032266;28;20184;-52
2023/01/28 12:40:37;;;;;;;7.50;2.80;;;4.70;37.00;;;;;;5031818;28;20210;-51
2023/01/28 12:43:19;;;;;;;3.00;2.75;;;4.70;37.90;;;;;;5031961;28;20302;-51
2023/01/28 12:45:54;;;;;;;3.70;2.63;;;4.70;37.10;;;;;;5031930;28;20157;-51
2023/01/28 12:48:23;;;;;;;4.05;2.83;;;4.70;36.90;;;;;;5031910;28;20176;-51
2023/01/28 12:50:57;;;;;;;5.53;2.95;;;4.70;36.90;;;;;;5032025;28;20182;-51
2023/01/28 12:53:37;;;;;;;4.38;3.15;;;4.70;36.30;;;;;;5032083;28;20173;-51
2023/01/28 12:56:07;;;;;;;3.85;3.45;;;4.70;36.10;;;;;;5031869;28;20188;-51
2023/01/28 12:58:51;;;;;;;6.15;4.30;;;4.70;36.10;;;;;;5031748;28;20615;-51
2023/01/28 13:01:25;;;;;;;6.60;3.67;;;4.60;36.40;;;;;;5031951;28;20218;-51
2023/01/28 13:04:05;;;;;;;4.40;3.15;;;4.60;36.80;;;;;;5031833;28;20209;-52
2023/01/28 13:07:00;;;;;;;5.22;3.60;;;4.60;36.80;;;;;;5031787;28;20660;-51
2023/01/28 13:09:27;;;;;;;4.65;2.95;;;4.70;37.00;;;;;;5031867;28;20244;-51
2023/01/28 13:11:57;;;;;;;3.97;3.00;;;4.70;36.90;;;;;;5031702;28;20231;-51
2023/01/28 13:14:30;;;;;;;5.93;2.40;;;4.80;36.90;;;;;;5031550;28;20236;-51
2023/01/28 13:17:08;;;;;;;3.25;2.95;;;4.70;36.90;;;;;;5031903;28;20167;-52
2023/01/28 13:19:41;;;;;;;3.17;2.92;;;4.80;36.80;;;;;;5031513;28;20237;-51
2023/01/28 13:22:29;;;;;;;4.82;3.30;;;4.80;36.90;;;;;;5031431;28;20277;-51
2023/01/28 13:24:56;;;;;;;4.57;4.18;;;4.80;36.90;;;;;;5031411;28;20178;-51
2023/01/28 13:27:28;;;;;;;4.95;4.40;;;4.80;37.10;;;;;;5031462;28;20192;-51
2023/01/28 13:30:05;;;;;;;4.72;3.83;;;4.80;37.10;;;;;;5031716;28;20227;-51
2023/01/28 13:32:34;;;;;;;4.85;3.63;;;4.80;36.70;;;;;;5031384;28;20201;-51
2023/01/28 13:35:06;;;;;;;5.22;3.22;;;4.80;36.60;;;;;;5031960;28;20277;-52
2023/01/28 13:37:43;;;;;;;7.07;3.78;;;4.80;36.90;;;;;;5035119;28;20181;-51
2023/01/28 13:40:12;;;;;;;7.35;4.53;;;4.80;36.80;;;;;;5034837;28;20649;-52
2023/01/28 13:42:38;;;;;;;4.30;3.25;;;4.80;37.00;;;;;;5035090;28;20193;-52